sensor_id;sensor_type;location;lat;lon;timestamp;P1;durP1;ratioP1;P2;durP2;ratioP2
36923;SDS011;22841;50.252;18.688;2023-04-03T00:00:24;14.00;;;9.20;;
36923;SDS011;22841;50.252;18.688;2023-04-03T00:02:50;15.07;;;9.15;;
36923;SDS011;22841;50.252;18.688;2023-04-03T00:05:16;16.23;;;9.30;;
36923;SDS011;22841;50.252;18.688;2023-04-03T00:07:42;13.80;;;10.35;;
36923;SDS011;22841;50.252;18.688;2023-04-03T00:10:09;16.27;;;10.70;;
36923;SDS011;22841;50.252;18.688;2023-04-03T00:12:35;16.20;;;11.05;;
36923;SDS011;22841;50.252;18.688;2023-04-03T00:15:01;13.00;;;10.23;;
36923;SDS011;22841;50.252;18.688;2023-04-03T00:17:28;18.30;;;10.32;;
36923;SDS011;22841;50.252;18.688;2023-04-03T00:19:54;16.50;;;10.88;;
36923;SDS011;22841;50.252;18.688;2023-04-03T00:22:20;16.30;;;10.32;;
36923;SDS011;22841;50.252;18.688;2023-04-03T00:24:46;15.20;;;10.02;;
36923;SDS011;22841;50.252;18.688;2023-04-03T00:27:12;17.40;;;10.80;;
36923;SDS011;22841;50.252;18.688;2023-04-03T00:29:38;17.38;;;10.73;;
36923;SDS011;22841;50.252;18.688;2023-04-03T00:32:04;15.50;;;10.90;;
36923;SDS011;22841;50.252;18.688;2023-04-03T00:34:30;17.00;;;10.40;;
36923;SDS011;22841;50.252;18.688;2023-04-03T00:36:56;21.52;;;12.40;;
36923;SDS011;22841;50.252;18.688;2023-04-03T00:39:23;18.13;;;10.40;;
36923;SDS011;22841;50.252;18.688;2023-04-03T00:41:49;19.52;;;11.18;;
36923;SDS011;22841;50.252;18.688;2023-04-03T00:44:22;21.02;;;12.20;;
36923;SDS011;22841;50.252;18.688;2023-04-03T00:49:35;16.35;;;10.40;;
36923;SDS011;22841;50.252;18.688;2023-04-03T00:52:04;19.30;;;11.88;;
36923;SDS011;22841;50.252;18.688;2023-04-03T00:54:33;20.50;;;12.20;;
36923;SDS011;22841;50.252;18.688;2023-04-03T00:57:01;19.13;;;11.55;;
36923;SDS011;22841;50.252;18.688;2023-04-03T00:59:31;16.63;;;10.75;;
36923;SDS011;22841;50.252;18.688;2023-04-03T01:02:01;17.60;;;11.48;;
36923;SDS011;22841;50.252;18.688;2023-04-03T01:04:28;17.50;;;10.75;;
36923;SDS011;22841;50.252;18.688;2023-04-03T01:07:01;18.40;;;10.85;;
36923;SDS011;22841;50.252;18.688;2023-04-03T01:09:32;20.02;;;11.68;;
36923;SDS011;22841;50.252;18.688;2023-04-03T01:14:42;22.55;;;10.75;;
36923;SDS011;22841;50.252;18.688;2023-04-03T01:17:43;17.83;;;9.88;;
36923;SDS011;22841;50.252;18.688;2023-04-03T01:25:43;15.25;;;9.35;;
36923;SDS011;22841;50.252;18.688;2023-04-03T01:33:35;15.43;;;9.15;;
36923;SDS011;22841;50.252;18.688;2023-04-03T01:36:02;13.80;;;8.55;;
36923;SDS011;22841;50.252;18.688;2023-04-03T01:38:29;16.13;;;9.13;;
36923;SDS011;22841;50.252;18.688;2023-04-03T01:40:57;16.58;;;7.88;;
36923;SDS011;22841;50.252;18.688;2023-04-03T01:43:23;15.05;;;8.10;;
36923;SDS011;22841;50.252;18.688;2023-04-03T01:45:49;13.45;;;7.82;;
36923;SDS011;22841;50.252;18.688;2023-04-03T01:48:15;13.95;;;7.47;;
36923;SDS011;22841;50.252;18.688;2023-04-03T01:50:42;12.40;;;7.60;;
36923;SDS011;22841;50.252;18.688;2023-04-03T01:53:08;16.13;;;8.25;;
36923;SDS011;22841;50.252;18.688;2023-04-03T01:55:34;14.90;;;6.72;;
36923;SDS011;22841;50.252;18.688;2023-04-03T01:58:00;14.98;;;6.78;;
36923;SDS011;22841;50.252;18.688;2023-04-03T02:00:26;14.18;;;7.30;;
36923;SDS011;22841;50.252;18.688;2023-04-03T02:02:52;15.88;;;6.78;;
36923;SDS011;22841;50.252;18.688;2023-04-03T02:05:18;17.88;;;8.02;;
36923;SDS011;22841;50.252;18.688;2023-04-03T02:07:44;13.68;;;6.85;;
36923;SDS011;22841;50.252;18.688;2023-04-03T02:10:11;16.27;;;6.57;;
36923;SDS011;22841;50.252;18.688;2023-04-03T02:12:37;11.82;;;6.72;;
36923;SDS011;22841;50.252;18.688;2023-04-03T02:15:03;11.40;;;6.88;;
36923;SDS011;22841;50.252;18.688;2023-04-03T02:17:30;15.18;;;6.57;;
36923;SDS011;22841;50.252;18.688;2023-04-03T02:19:57;13.10;;;6.35;;
36923;SDS011;22841;50.252;18.688;2023-04-03T02:22:23;9.70;;;5.43;;
36923;SDS011;22841;50.252;18.688;2023-04-03T02:24:49;15.93;;;9.02;;
36923;SDS011;22841;50.252;18.688;2023-04-03T02:27:17;17.42;;;7.32;;
36923;SDS011;22841;50.252;18.688;2023-04-03T02:29:43;12.10;;;5.85;;
36923;SDS011;22841;50.252;18.688;2023-04-03T02:32:09;18.75;;;7.43;;
36923;SDS011;22841;50.252;18.688;2023-04-03T02:34:35;11.45;;;5.78;;
36923;SDS011;22841;50.252;18.688;2023-04-03T02:37:01;12.93;;;4.95;;
36923;SDS011;22841;50.252;18.688;2023-04-03T02:39:28;17.20;;;5.88;;
36923;SDS011;22841;50.252;18.688;2023-04-03T02:41:54;14.43;;;5.40;;
36923;SDS011;22841;50.252;18.688;2023-04-03T02:44:20;18.63;;;6.35;;
36923;SDS011;22841;50.252;18.688;2023-04-03T02:46:49;13.98;;;5.53;;
36923;SDS011;22841;50.252;18.688;2023-04-03T02:49:15;16.55;;;5.38;;
36923;SDS011;22841;50.252;18.688;2023-04-03T02:51:41;13.35;;;6.35;;
36923;SDS011;22841;50.252;18.688;2023-04-03T02:54:07;18.55;;;5.72;;
36923;SDS011;22841;50.252;18.688;2023-04-03T02:56:33;8.80;;;4.57;;
36923;SDS011;22841;50.252;18.688;2023-04-03T02:59:00;15.82;;;5.53;;
36923;SDS011;22841;50.252;18.688;2023-04-03T03:01:26;13.52;;;5.63;;
36923;SDS011;22841;50.252;18.688;2023-04-03T03:03:57;10.02;;;5.05;;
36923;SDS011;22841;50.252;18.688;2023-04-03T03:06:23;16.00;;;5.00;;
36923;SDS011;22841;50.252;18.688;2023-04-03T03:08:50;10.20;;;4.68;;
36923;SDS011;22841;50.252;18.688;2023-04-03T03:11:16;8.98;;;4.32;;
36923;SDS011;22841;50.252;18.688;2023-04-03T03:13:42;10.18;;;5.07;;
36923;SDS011;22841;50.252;18.688;2023-04-03T03:16:08;6.57;;;4.25;;
36923;SDS011;22841;50.252;18.688;2023-04-03T03:18:34;13.68;;;4.55;;
36923;SDS011;22841;50.252;18.688;2023-04-03T03:21:01;16.50;;;6.35;;
36923;SDS011;22841;50.252;18.688;2023-04-03T03:23:28;12.57;;;5.00;;
36923;SDS011;22841;50.252;18.688;2023-04-03T03:25:58;7.32;;;4.13;;
36923;SDS011;22841;50.252;18.688;2023-04-03T03:28:26;11.38;;;4.97;;
36923;SDS011;22841;50.252;18.688;2023-04-03T03:30:52;12.35;;;4.97;;
36923;SDS011;22841;50.252;18.688;2023-04-03T03:33:18;10.52;;;4.72;;
36923;SDS011;22841;50.252;18.688;2023-04-03T03:35:44;9.27;;;4.30;;
36923;SDS011;22841;50.252;18.688;2023-04-03T03:38:11;13.88;;;5.28;;
36923;SDS011;22841;50.252;18.688;2023-04-03T03:40:37;9.02;;;4.65;;
36923;SDS011;22841;50.252;18.688;2023-04-03T03:43:03;11.07;;;4.13;;
36923;SDS011;22841;50.252;18.688;2023-04-03T03:45:29;15.70;;;5.30;;
36923;SDS011;22841;50.252;18.688;2023-04-03T03:47:56;8.85;;;4.20;;
36923;SDS011;22841;50.252;18.688;2023-04-03T03:50:22;9.63;;;4.10;;
36923;SDS011;22841;50.252;18.688;2023-04-03T03:52:48;8.95;;;4.47;;
36923;SDS011;22841;50.252;18.688;2023-04-03T03:55:14;9.38;;;4.22;;
36923;SDS011;22841;50.252;18.688;2023-04-03T03:57:40;8.88;;;4.15;;
36923;SDS011;22841;50.252;18.688;2023-04-03T04:00:07;13.35;;;4.35;;
36923;SDS011;22841;50.252;18.688;2023-04-03T04:02:34;7.28;;;3.50;;
36923;SDS011;22841;50.252;18.688;2023-04-03T04:05:00;9.82;;;3.80;;
36923;SDS011;22841;50.252;18.688;2023-04-03T04:07:26;12.07;;;4.43;;
36923;SDS011;22841;50.252;18.688;2023-04-03T04:09:53;8.70;;;4.70;;
36923;SDS011;22841;50.252;18.688;2023-04-03T04:12:20;13.75;;;5.20;;
36923;SDS011;22841;50.252;18.688;2023-04-03T04:14:46;15.88;;;5.80;;
36923;SDS011;22841;50.252;18.688;2023-04-03T04:17:13;8.98;;;4.60;;
36923;SDS011;22841;50.252;18.688;2023-04-03T04:19:39;13.85;;;5.20;;
36923;SDS011;22841;50.252;18.688;2023-04-03T04:22:06;13.98;;;4.40;;
36923;SDS011;22841;50.252;18.688;2023-04-03T04:24:32;13.25;;;4.72;;
36923;SDS011;22841;50.252;18.688;2023-04-03T04:26:58;11.57;;;5.32;;
36923;SDS011;22841;50.252;18.688;2023-04-03T04:29:24;14.73;;;4.47;;
36923;SDS011;22841;50.252;18.688;2023-04-03T04:31:50;12.77;;;5.03;;
36923;SDS011;22841;50.252;18.688;2023-04-03T04:34:16;11.02;;;4.45;;
36923;SDS011;22841;50.252;18.688;2023-04-03T04:36:42;11.90;;;4.57;;
36923;SDS011;22841;50.252;18.688;2023-04-03T04:39:09;10.15;;;4.30;;
36923;SDS011;22841;50.252;18.688;2023-04-03T04:41:35;11.73;;;4.40;;
36923;SDS011;22841;50.252;18.688;2023-04-03T04:44:01;10.73;;;6.15;;
36923;SDS011;22841;50.252;18.688;2023-04-03T04:46:27;15.90;;;4.88;;
36923;SDS011;22841;50.252;18.688;2023-04-03T04:48:53;15.73;;;6.22;;
36923;SDS011;22841;50.252;18.688;2023-04-03T04:51:19;16.77;;;5.97;;
36923;SDS011;22841;50.252;18.688;2023-04-03T04:53:45;15.43;;;5.68;;
36923;SDS011;22841;50.252;18.688;2023-04-03T04:56:11;12.98;;;5.28;;
36923;SDS011;22841;50.252;18.688;2023-04-03T04:58:37;12.00;;;5.43;;
36923;SDS011;22841;50.252;18.688;2023-04-03T05:01:05;14.07;;;4.97;;
36923;SDS011;22841;50.252;18.688;2023-04-03T05:03:32;10.10;;;4.75;;
36923;SDS011;22841;50.252;18.688;2023-04-03T05:05:58;9.48;;;4.78;;
36923;SDS011;22841;50.252;18.688;2023-04-03T05:08:24;10.60;;;4.53;;
36923;SDS011;22841;50.252;18.688;2023-04-03T05:10:51;14.57;;;5.97;;
36923;SDS011;22841;50.252;18.688;2023-04-03T05:13:18;14.60;;;6.25;;
36923;SDS011;22841;50.252;18.688;2023-04-03T05:15:46;19.15;;;6.50;;
36923;SDS011;22841;50.252;18.688;2023-04-03T05:18:12;21.05;;;5.55;;
36923;SDS011;22841;50.252;18.688;2023-04-03T05:20:38;16.83;;;5.60;;
36923;SDS011;22841;50.252;18.688;2023-04-03T05:23:05;11.63;;;6.45;;
36923;SDS011;22841;50.252;18.688;2023-04-03T05:25:31;11.68;;;4.45;;
36923;SDS011;22841;50.252;18.688;2023-04-03T05:27:57;9.63;;;3.92;;
36923;SDS011;22841;50.252;18.688;2023-04-03T05:30:23;10.18;;;3.95;;
36923;SDS011;22841;50.252;18.688;2023-04-03T05:32:50;14.05;;;4.57;;
36923;SDS011;22841;50.252;18.688;2023-04-03T05:35:16;18.65;;;5.13;;
36923;SDS011;22841;50.252;18.688;2023-04-03T05:37:42;11.18;;;4.75;;
36923;SDS011;22841;50.252;18.688;2023-04-03T05:40:08;9.23;;;4.45;;
36923;SDS011;22841;50.252;18.688;2023-04-03T05:42:35;8.73;;;3.80;;
36923;SDS011;22841;50.252;18.688;2023-04-03T05:45:01;14.10;;;5.57;;
36923;SDS011;22841;50.252;18.688;2023-04-03T05:47:27;11.80;;;5.38;;
36923;SDS011;22841;50.252;18.688;2023-04-03T05:49:53;16.45;;;6.05;;
36923;SDS011;22841;50.252;18.688;2023-04-03T05:52:23;20.60;;;6.78;;
36923;SDS011;22841;50.252;18.688;2023-04-03T05:54:55;18.83;;;7.35;;
36923;SDS011;22841;50.252;18.688;2023-04-03T05:57:22;11.38;;;5.40;;
36923;SDS011;22841;50.252;18.688;2023-04-03T05:59:48;15.23;;;7.10;;
36923;SDS011;22841;50.252;18.688;2023-04-03T06:02:16;15.30;;;5.85;;
36923;SDS011;22841;50.252;18.688;2023-04-03T06:04:43;27.80;;;9.10;;
36923;SDS011;22841;50.252;18.688;2023-04-03T06:07:11;15.38;;;7.22;;
36923;SDS011;22841;50.252;18.688;2023-04-03T06:09:39;19.63;;;7.60;;
36923;SDS011;22841;50.252;18.688;2023-04-03T06:12:07;12.18;;;5.60;;
36923;SDS011;22841;50.252;18.688;2023-04-03T06:14:34;13.60;;;6.78;;
36923;SDS011;22841;50.252;18.688;2023-04-03T06:17:00;17.10;;;6.97;;
36923;SDS011;22841;50.252;18.688;2023-04-03T06:19:27;13.10;;;5.20;;
36923;SDS011;22841;50.252;18.688;2023-04-03T06:21:54;13.02;;;5.07;;
36923;SDS011;22841;50.252;18.688;2023-04-03T06:24:20;11.10;;;5.28;;
36923;SDS011;22841;50.252;18.688;2023-04-03T06:26:48;8.65;;;5.13;;
36923;SDS011;22841;50.252;18.688;2023-04-03T06:29:17;13.68;;;5.70;;
36923;SDS011;22841;50.252;18.688;2023-04-03T06:31:43;12.85;;;5.80;;
36923;SDS011;22841;50.252;18.688;2023-04-03T06:34:09;10.68;;;5.05;;
36923;SDS011;22841;50.252;18.688;2023-04-03T06:36:37;12.52;;;5.82;;
36923;SDS011;22841;50.252;18.688;2023-04-03T06:39:04;13.30;;;4.32;;
36923;SDS011;22841;50.252;18.688;2023-04-03T06:41:30;13.88;;;5.45;;
36923;SDS011;22841;50.252;18.688;2023-04-03T06:43:56;13.40;;;4.68;;
36923;SDS011;22841;50.252;18.688;2023-04-03T06:46:24;8.85;;;3.90;;
36923;SDS011;22841;50.252;18.688;2023-04-03T06:48:51;10.43;;;4.45;;
36923;SDS011;22841;50.252;18.688;2023-04-03T06:51:25;12.13;;;4.50;;
36923;SDS011;22841;50.252;18.688;2023-04-03T06:53:53;13.15;;;4.22;;
36923;SDS011;22841;50.252;18.688;2023-04-03T06:56:22;14.02;;;3.97;;
36923;SDS011;22841;50.252;18.688;2023-04-03T06:58:49;19.05;;;5.28;;
36923;SDS011;22841;50.252;18.688;2023-04-03T07:01:17;11.82;;;4.78;;
36923;SDS011;22841;50.252;18.688;2023-04-03T07:03:47;11.35;;;4.70;;
36923;SDS011;22841;50.252;18.688;2023-04-03T07:06:14;14.23;;;5.03;;
36923;SDS011;22841;50.252;18.688;2023-04-03T07:08:41;10.95;;;3.85;;
36923;SDS011;22841;50.252;18.688;2023-04-03T07:11:07;13.45;;;3.53;;
36923;SDS011;22841;50.252;18.688;2023-04-03T07:13:34;13.68;;;4.72;;
36923;SDS011;22841;50.252;18.688;2023-04-03T07:16:00;9.45;;;4.22;;
36923;SDS011;22841;50.252;18.688;2023-04-03T07:18:29;10.55;;;4.82;;
36923;SDS011;22841;50.252;18.688;2023-04-03T07:20:55;10.13;;;4.07;;
36923;SDS011;22841;50.252;18.688;2023-04-03T07:23:21;9.18;;;4.10;;
36923;SDS011;22841;50.252;18.688;2023-04-03T07:25:48;16.17;;;4.55;;
36923;SDS011;22841;50.252;18.688;2023-04-03T07:28:17;11.82;;;4.18;;
36923;SDS011;22841;50.252;18.688;2023-04-03T07:33:12;12.05;;;4.07;;
36923;SDS011;22841;50.252;18.688;2023-04-03T07:35:39;21.02;;;6.55;;
36923;SDS011;22841;50.252;18.688;2023-04-03T07:38:05;8.80;;;3.88;;
36923;SDS011;22841;50.252;18.688;2023-04-03T07:40:32;10.23;;;4.15;;
36923;SDS011;22841;50.252;18.688;2023-04-03T07:42:58;10.63;;;3.85;;
36923;SDS011;22841;50.252;18.688;2023-04-03T07:45:25;8.10;;;3.67;;
36923;SDS011;22841;50.252;18.688;2023-04-03T07:47:52;11.77;;;3.70;;
36923;SDS011;22841;50.252;18.688;2023-04-03T07:50:18;7.05;;;3.33;;
36923;SDS011;22841;50.252;18.688;2023-04-03T07:52:44;7.85;;;3.95;;
36923;SDS011;22841;50.252;18.688;2023-04-03T07:55:11;11.60;;;4.90;;
36923;SDS011;22841;50.252;18.688;2023-04-03T07:57:37;10.30;;;4.10;;
36923;SDS011;22841;50.252;18.688;2023-04-03T08:00:04;10.95;;;4.43;;
36923;SDS011;22841;50.252;18.688;2023-04-03T08:02:30;7.80;;;3.42;;
36923;SDS011;22841;50.252;18.688;2023-04-03T08:04:57;7.38;;;3.95;;
36923;SDS011;22841;50.252;18.688;2023-04-03T08:07:24;5.00;;;3.10;;
36923;SDS011;22841;50.252;18.688;2023-04-03T08:09:50;15.82;;;5.15;;
36923;SDS011;22841;50.252;18.688;2023-04-03T08:12:17;7.82;;;2.95;;
36923;SDS011;22841;50.252;18.688;2023-04-03T08:14:43;9.20;;;4.10;;
36923;SDS011;22841;50.252;18.688;2023-04-03T08:17:09;5.85;;;2.92;;
36923;SDS011;22841;50.252;18.688;2023-04-03T08:19:37;10.43;;;4.70;;
36923;SDS011;22841;50.252;18.688;2023-04-03T08:22:04;6.53;;;2.75;;
36923;SDS011;22841;50.252;18.688;2023-04-03T08:24:32;7.78;;;3.10;;
36923;SDS011;22841;50.252;18.688;2023-04-03T08:26:58;12.23;;;3.95;;
36923;SDS011;22841;50.252;18.688;2023-04-03T08:29:24;6.78;;;3.08;;
36923;SDS011;22841;50.252;18.688;2023-04-03T08:31:51;12.07;;;5.63;;
36923;SDS011;22841;50.252;18.688;2023-04-03T08:34:17;10.50;;;4.30;;
36923;SDS011;22841;50.252;18.688;2023-04-03T08:36:44;10.40;;;4.22;;
36923;SDS011;22841;50.252;18.688;2023-04-03T08:39:10;11.20;;;3.28;;
36923;SDS011;22841;50.252;18.688;2023-04-03T08:47:30;4.97;;;2.40;;
36923;SDS011;22841;50.252;18.688;2023-04-03T08:49:59;5.13;;;2.50;;
36923;SDS011;22841;50.252;18.688;2023-04-03T08:55:06;3.35;;;2.03;;
36923;SDS011;22841;50.252;18.688;2023-04-03T08:57:41;7.70;;;2.40;;
36923;SDS011;22841;50.252;18.688;2023-04-03T09:00:16;3.13;;;1.80;;
36923;SDS011;22841;50.252;18.688;2023-04-03T09:02:49;8.82;;;3.15;;
36923;SDS011;22841;50.252;18.688;2023-04-03T09:05:39;5.93;;;3.55;;
36923;SDS011;22841;50.252;18.688;2023-04-03T09:10:52;10.25;;;4.00;;
36923;SDS011;22841;50.252;18.688;2023-04-03T09:16:10;6.05;;;2.10;;
36923;SDS011;22841;50.252;18.688;2023-04-03T09:18:45;6.45;;;2.10;;
36923;SDS011;22841;50.252;18.688;2023-04-03T09:21:26;6.63;;;2.22;;
36923;SDS011;22841;50.252;18.688;2023-04-03T09:24:00;8.10;;;2.78;;
36923;SDS011;22841;50.252;18.688;2023-04-03T09:27:15;3.10;;;1.85;;
36923;SDS011;22841;50.252;18.688;2023-04-03T09:29:17;5.70;;;2.88;;
36923;SDS011;22841;50.252;18.688;2023-04-03T09:31:46;4.80;;;2.30;;
36923;SDS011;22841;50.252;18.688;2023-04-03T09:34:18;8.68;;;3.28;;
36923;SDS011;22841;50.252;18.688;2023-04-03T09:39:15;7.75;;;3.45;;
36923;SDS011;22841;50.252;18.688;2023-04-03T09:44:26;5.28;;;3.20;;
36923;SDS011;22841;50.252;18.688;2023-04-03T09:46:54;9.70;;;4.25;;
36923;SDS011;22841;50.252;18.688;2023-04-03T09:49:20;8.95;;;3.47;;
36923;SDS011;22841;50.252;18.688;2023-04-03T09:51:47;11.50;;;3.30;;
36923;SDS011;22841;50.252;18.688;2023-04-03T09:57:05;6.22;;;3.30;;
36923;SDS011;22841;50.252;18.688;2023-04-03T09:59:39;6.95;;;2.53;;
36923;SDS011;22841;50.252;18.688;2023-04-03T10:04:46;5.75;;;2.45;;
36923;SDS011;22841;50.252;18.688;2023-04-03T10:07:25;4.50;;;2.30;;
36923;SDS011;22841;50.252;18.688;2023-04-03T10:12:44;6.07;;;2.50;;
36923;SDS011;22841;50.252;18.688;2023-04-03T10:15:12;5.90;;;2.50;;
36923;SDS011;22841;50.252;18.688;2023-04-03T10:17:50;3.15;;;1.88;;
36923;SDS011;22841;50.252;18.688;2023-04-03T10:23:05;5.63;;;2.30;;
36923;SDS011;22841;50.252;18.688;2023-04-03T10:26:02;4.88;;;2.00;;
36923;SDS011;22841;50.252;18.688;2023-04-03T10:28:51;3.90;;;2.05;;
36923;SDS011;22841;50.252;18.688;2023-04-03T10:34:37;7.50;;;2.40;;
36923;SDS011;22841;50.252;18.688;2023-04-03T10:37:24;3.30;;;2.47;;
36923;SDS011;22841;50.252;18.688;2023-04-03T10:47:46;10.77;;;3.40;;
36923;SDS011;22841;50.252;18.688;2023-04-03T10:50:45;9.23;;;3.65;;
36923;SDS011;22841;50.252;18.688;2023-04-03T10:57:15;7.82;;;2.47;;
36923;SDS011;22841;50.252;18.688;2023-04-03T10:59:16;3.20;;;2.35;;
36923;SDS011;22841;50.252;18.688;2023-04-03T11:01:54;5.30;;;2.20;;
36923;SDS011;22841;50.252;18.688;2023-04-03T11:04:24;5.53;;;2.97;;
36923;SDS011;22841;50.252;18.688;2023-04-03T11:09:27;8.73;;;3.03;;
36923;SDS011;22841;50.252;18.688;2023-04-03T11:12:10;8.45;;;3.35;;
36923;SDS011;22841;50.252;18.688;2023-04-03T11:14:42;9.05;;;3.97;;
36923;SDS011;22841;50.252;18.688;2023-04-03T11:22:30;5.18;;;2.63;;
36923;SDS011;22841;50.252;18.688;2023-04-03T11:27:42;9.85;;;4.40;;
36923;SDS011;22841;50.252;18.688;2023-04-03T11:30:15;18.20;;;8.68;;
36923;SDS011;22841;50.252;18.688;2023-04-03T11:35:37;6.57;;;3.55;;
36923;SDS011;22841;50.252;18.688;2023-04-03T11:38:15;7.10;;;3.75;;
36923;SDS011;22841;50.252;18.688;2023-04-03T11:40:54;8.73;;;3.58;;
36923;SDS011;22841;50.252;18.688;2023-04-03T11:43:27;5.18;;;2.20;;
36923;SDS011;22841;50.252;18.688;2023-04-03T11:46:04;6.53;;;2.83;;
36923;SDS011;22841;50.252;18.688;2023-04-03T11:51:01;5.28;;;2.72;;
36923;SDS011;22841;50.252;18.688;2023-04-03T11:53:48;4.65;;;2.58;;
36923;SDS011;22841;50.252;18.688;2023-04-03T11:59:34;12.30;;;5.45;;
36923;SDS011;22841;50.252;18.688;2023-04-03T12:01:44;7.07;;;3.45;;
36923;SDS011;22841;50.252;18.688;2023-04-03T12:04:12;2.80;;;2.22;;
36923;SDS011;22841;50.252;18.688;2023-04-03T12:06:42;5.10;;;3.20;;
36923;SDS011;22841;50.252;18.688;2023-04-03T12:12:01;3.95;;;2.42;;
36923;SDS011;22841;50.252;18.688;2023-04-03T12:14:47;5.30;;;2.40;;
36923;SDS011;22841;50.252;18.688;2023-04-03T12:17:19;5.70;;;2.70;;
36923;SDS011;22841;50.252;18.688;2023-04-03T12:19:54;6.30;;;2.95;;
36923;SDS011;22841;50.252;18.688;2023-04-03T12:22:21;5.50;;;2.28;;
36923;SDS011;22841;50.252;18.688;2023-04-03T12:24:48;8.70;;;2.67;;
36923;SDS011;22841;50.252;18.688;2023-04-03T12:27:24;7.13;;;3.00;;
36923;SDS011;22841;50.252;18.688;2023-04-03T12:30:03;4.32;;;2.70;;
36923;SDS011;22841;50.252;18.688;2023-04-03T12:35:24;4.97;;;2.38;;
36923;SDS011;22841;50.252;18.688;2023-04-03T12:43:25;5.32;;;2.40;;
36923;SDS011;22841;50.252;18.688;2023-04-03T12:46:07;4.30;;;2.40;;
36923;SDS011;22841;50.252;18.688;2023-04-03T12:51:14;6.13;;;2.35;;
36923;SDS011;22841;50.252;18.688;2023-04-03T12:53:42;7.45;;;2.47;;
36923;SDS011;22841;50.252;18.688;2023-04-03T12:56:20;6.05;;;2.65;;
36923;SDS011;22841;50.252;18.688;2023-04-03T13:01:59;5.50;;;2.43;;
36923;SDS011;22841;50.252;18.688;2023-04-03T13:04:27;5.38;;;2.30;;
36923;SDS011;22841;50.252;18.688;2023-04-03T13:06:54;4.95;;;1.80;;
36923;SDS011;22841;50.252;18.688;2023-04-03T13:09:24;7.25;;;2.83;;
36923;SDS011;22841;50.252;18.688;2023-04-03T13:11:57;5.68;;;2.60;;
36923;SDS011;22841;50.252;18.688;2023-04-03T13:14:29;6.25;;;3.03;;
36923;SDS011;22841;50.252;18.688;2023-04-03T13:16:56;6.00;;;3.22;;
36923;SDS011;22841;50.252;18.688;2023-04-03T13:19:23;4.32;;;2.60;;
36923;SDS011;22841;50.252;18.688;2023-04-03T13:21:57;4.80;;;2.67;;
36923;SDS011;22841;50.252;18.688;2023-04-03T13:24:26;4.57;;;2.60;;
36923;SDS011;22841;50.252;18.688;2023-04-03T13:26:55;6.05;;;3.08;;
36923;SDS011;22841;50.252;18.688;2023-04-03T13:29:23;7.20;;;3.17;;
36923;SDS011;22841;50.252;18.688;2023-04-03T13:31:55;8.15;;;3.15;;
36923;SDS011;22841;50.252;18.688;2023-04-03T13:34:23;4.38;;;2.72;;
36923;SDS011;22841;50.252;18.688;2023-04-03T13:39:37;6.65;;;2.53;;
36923;SDS011;22841;50.252;18.688;2023-04-03T13:42:15;5.13;;;3.25;;
36923;SDS011;22841;50.252;18.688;2023-04-03T13:47:38;8.07;;;3.97;;
36923;SDS011;22841;50.252;18.688;2023-04-03T13:50:14;6.15;;;3.53;;
36923;SDS011;22841;50.252;18.688;2023-04-03T13:58:34;7.68;;;3.95;;
36923;SDS011;22841;50.252;18.688;2023-04-03T14:03:22;3.80;;;2.33;;
36923;SDS011;22841;50.252;18.688;2023-04-03T14:05:54;3.92;;;2.40;;
36923;SDS011;22841;50.252;18.688;2023-04-03T14:08:20;3.92;;;2.42;;
36923;SDS011;22841;50.252;18.688;2023-04-03T14:10:47;6.35;;;3.10;;
36923;SDS011;22841;50.252;18.688;2023-04-03T14:13:16;6.50;;;2.97;;
36923;SDS011;22841;50.252;18.688;2023-04-03T14:15:44;6.72;;;2.83;;
36923;SDS011;22841;50.252;18.688;2023-04-03T14:18:14;8.00;;;3.28;;
36923;SDS011;22841;50.252;18.688;2023-04-03T14:20:46;7.18;;;3.28;;
36923;SDS011;22841;50.252;18.688;2023-04-03T14:23:14;6.15;;;3.70;;
36923;SDS011;22841;50.252;18.688;2023-04-03T14:25:40;6.15;;;3.50;;
36923;SDS011;22841;50.252;18.688;2023-04-03T14:28:18;13.88;;;5.43;;
36923;SDS011;22841;50.252;18.688;2023-04-03T14:30:47;8.25;;;3.13;;
36923;SDS011;22841;50.252;18.688;2023-04-03T14:33:16;8.18;;;2.75;;
36923;SDS011;22841;50.252;18.688;2023-04-03T14:35:45;6.63;;;3.67;;
36923;SDS011;22841;50.252;18.688;2023-04-03T14:40:52;15.98;;;6.07;;
36923;SDS011;22841;50.252;18.688;2023-04-03T14:43:20;10.77;;;5.22;;
36923;SDS011;22841;50.252;18.688;2023-04-03T14:45:47;5.55;;;2.85;;
36923;SDS011;22841;50.252;18.688;2023-04-03T14:48:21;7.00;;;3.33;;
36923;SDS011;22841;50.252;18.688;2023-04-03T14:50:50;50.20;;;14.00;;
36923;SDS011;22841;50.252;18.688;2023-04-03T14:53:17;33.72;;;10.30;;
36923;SDS011;22841;50.252;18.688;2023-04-03T14:55:48;7.72;;;3.42;;
36923;SDS011;22841;50.252;18.688;2023-04-03T14:58:15;7.13;;;3.15;;
36923;SDS011;22841;50.252;18.688;2023-04-03T15:00:43;7.90;;;3.78;;
36923;SDS011;22841;50.252;18.688;2023-04-03T15:03:12;31.08;;;10.68;;
36923;SDS011;22841;50.252;18.688;2023-04-03T15:05:41;22.40;;;7.43;;
36923;SDS011;22841;50.252;18.688;2023-04-03T15:08:13;5.80;;;3.17;;
36923;SDS011;22841;50.252;18.688;2023-04-03T15:10:47;98.30;;;27.02;;
36923;SDS011;22841;50.252;18.688;2023-04-03T15:13:14;85.85;;;23.10;;
36923;SDS011;22841;50.252;18.688;2023-04-03T15:15:40;73.32;;;20.63;;
36923;SDS011;22841;50.252;18.688;2023-04-03T15:18:09;51.30;;;16.80;;
36923;SDS011;22841;50.252;18.688;2023-04-03T15:20:38;43.17;;;13.87;;
36923;SDS011;22841;50.252;18.688;2023-04-03T15:23:04;43.10;;;14.90;;
36923;SDS011;22841;50.252;18.688;2023-04-03T15:25:31;27.25;;;7.97;;
36923;SDS011;22841;50.252;18.688;2023-04-03T15:27:58;35.17;;;9.40;;
36923;SDS011;22841;50.252;18.688;2023-04-03T15:30:25;49.97;;;12.38;;
36923;SDS011;22841;50.252;18.688;2023-04-03T15:32:51;19.90;;;6.97;;
36923;SDS011;22841;50.252;18.688;2023-04-03T15:35:18;93.20;;;30.95;;
36923;SDS011;22841;50.252;18.688;2023-04-03T15:37:45;75.80;;;30.58;;
36923;SDS011;22841;50.252;18.688;2023-04-03T15:40:11;116.30;;;44.47;;
36923;SDS011;22841;50.252;18.688;2023-04-03T15:42:37;49.70;;;20.10;;
36923;SDS011;22841;50.252;18.688;2023-04-03T15:45:04;46.65;;;20.77;;
36923;SDS011;22841;50.252;18.688;2023-04-03T15:47:31;10.95;;;5.65;;
36923;SDS011;22841;50.252;18.688;2023-04-03T15:49:57;39.17;;;14.07;;
36923;SDS011;22841;50.252;18.688;2023-04-03T15:52:23;58.13;;;24.48;;
36923;SDS011;22841;50.252;18.688;2023-04-03T15:54:49;48.70;;;18.40;;
36923;SDS011;22841;50.252;18.688;2023-04-03T15:57:16;60.22;;;25.42;;
36923;SDS011;22841;50.252;18.688;2023-04-03T15:59:42;49.30;;;18.63;;
36923;SDS011;22841;50.252;18.688;2023-04-03T16:02:08;38.30;;;13.60;;
36923;SDS011;22841;50.252;18.688;2023-04-03T16:04:38;16.13;;;7.03;;
36923;SDS011;22841;50.252;18.688;2023-04-03T16:07:04;32.65;;;13.00;;
36923;SDS011;22841;50.252;18.688;2023-04-03T16:09:31;55.13;;;20.63;;
36923;SDS011;22841;50.252;18.688;2023-04-03T16:11:59;54.72;;;22.13;;
36923;SDS011;22841;50.252;18.688;2023-04-03T16:14:26;35.85;;;13.90;;
36923;SDS011;22841;50.252;18.688;2023-04-03T16:16:53;20.65;;;8.90;;
36923;SDS011;22841;50.252;18.688;2023-04-03T16:19:19;16.13;;;5.97;;
36923;SDS011;22841;50.252;18.688;2023-04-03T16:21:45;46.17;;;16.75;;
36923;SDS011;22841;50.252;18.688;2023-04-03T16:24:12;36.97;;;13.88;;
36923;SDS011;22841;50.252;18.688;2023-04-03T16:26:39;79.53;;;32.63;;